createdAt,value
2023-01-15T00:01:29.460Z,8.48
2023-01-15T00:03:57.944Z,7.77
2023-01-15T00:06:26.953Z,7.43
2023-01-15T00:08:54.337Z,9.37
2023-01-15T00:11:21.796Z,3.80
2023-01-15T00:13:48.712Z,9.13
2023-01-15T00:16:18.472Z,6.00
2023-01-15T00:18:50.895Z,18.93
2023-01-15T00:21:17.664Z,7.10
2023-01-15T00:24:03.139Z,7.47
2023-01-15T00:26:50.139Z,9.27
2023-01-15T00:29:17.591Z,6.53
2023-01-15T00:32:06.392Z,4.13
2023-01-15T00:34:34.141Z,5.60
2023-01-15T00:37:01.573Z,5.53
2023-01-15T00:39:28.596Z,7.47
2023-01-15T00:41:56.268Z,11.40
2023-01-15T00:44:23.251Z,4.43
2023-01-15T00:46:51.787Z,7.97
2023-01-15T00:49:21.049Z,5.07
2023-01-15T00:51:49.896Z,8.60
2023-01-15T00:54:17.401Z,5.00
2023-01-15T00:56:44.507Z,9.03
2023-01-15T00:59:11.591Z,5.57
2023-01-15T01:01:38.730Z,11.20
2023-01-15T01:04:05.788Z,8.63
2023-01-15T01:06:35.151Z,8.90
2023-01-15T01:09:01.909Z,9.60
2023-01-15T01:11:34.103Z,9.87
2023-01-15T01:14:02.369Z,4.70
2023-01-15T01:16:38.667Z,3.50
2023-01-15T01:19:18.356Z,10.17
2023-01-15T01:21:46.771Z,8.07
2023-01-15T01:24:16.779Z,10.60
2023-01-15T01:26:45.377Z,7.83
2023-01-15T01:29:13.872Z,7.80
2023-01-15T01:31:40.872Z,10.10
2023-01-15T01:34:08.848Z,7.80
2023-01-15T01:36:38.506Z,7.60
2023-01-15T01:39:06.592Z,7.70
2023-01-15T01:41:34.275Z,2.30
2023-01-15T01:44:09.048Z,8.73
2023-01-15T01:46:36.561Z,9.37
2023-01-15T01:49:14.418Z,6.23
2023-01-15T01:51:48.132Z,8.50
2023-01-15T01:54:17.939Z,6.00
2023-01-15T01:56:45.493Z,9.03
2023-01-15T01:59:12.552Z,6.13
2023-01-15T02:01:40.143Z,11.77
2023-01-15T02:04:09.281Z,10.83
2023-01-15T02:06:38.208Z,6.43
2023-01-15T02:09:05.864Z,8.57
2023-01-15T02:11:35.066Z,8.60
2023-01-15T02:14:14.589Z,11.97
2023-01-15T02:17:00.096Z,8.33
2023-01-15T02:19:52.408Z,8.57
2023-01-15T02:22:53.525Z,7.73
2023-01-15T02:25:32.342Z,7.57
2023-01-15T02:28:07.524Z,10.50
2023-01-15T02:30:43.883Z,8.27
2023-01-15T02:33:35.327Z,4.63
2023-01-15T02:36:06.576Z,7.03
2023-01-15T02:38:41.634Z,7.30
2023-01-15T02:41:16.600Z,6.80
2023-01-15T02:43:55.776Z,8.67
2023-01-15T02:46:30.701Z,9.43
2023-01-15T02:49:00.387Z,6.17
2023-01-15T02:51:44.989Z,6.53
2023-01-15T02:54:16.551Z,10.47
2023-01-15T02:56:47.135Z,5.30
2023-01-15T02:59:22.387Z,2.73
2023-01-15T03:02:03.664Z,8.83
2023-01-15T03:05:08.007Z,6.90
2023-01-15T03:07:55.163Z,10.33
2023-01-15T03:10:43.437Z,7.67
2023-01-15T03:13:16.996Z,5.10
2023-01-15T03:16:26.450Z,6.40
2023-01-15T03:18:58.643Z,5.10
2023-01-15T03:21:48.281Z,7.43
2023-01-15T03:24:24.351Z,7.70
2023-01-15T03:26:52.245Z,6.40
2023-01-15T03:29:20.378Z,5.93
2023-01-15T03:31:49.933Z,4.17
2023-01-15T03:34:18.588Z,8.70
2023-01-15T03:36:46.682Z,5.27
2023-01-15T03:39:13.706Z,9.43
2023-01-15T03:42:09.926Z,6.50
2023-01-15T03:44:55.520Z,7.20
2023-01-15T03:47:42.751Z,3.00
2023-01-15T03:50:22.730Z,7.90
2023-01-15T03:52:52.999Z,8.67
2023-01-15T03:55:32.736Z,4.20
2023-01-15T03:58:18.688Z,8.80
2023-01-15T04:00:52.700Z,4.23
2023-01-15T04:03:23.856Z,5.67
2023-01-15T04:05:52.615Z,3.97
2023-01-15T04:08:21.206Z,12.20
2023-01-15T04:10:58.043Z,5.50
2023-01-15T04:13:31.226Z,5.10
2023-01-15T04:15:59.078Z,5.90
2023-01-15T04:18:26.785Z,8.00
2023-01-15T04:20:55.602Z,7.90
2023-01-15T04:23:22.945Z,6.23
2023-01-15T04:25:49.820Z,9.70
2023-01-15T04:28:16.578Z,4.83
2023-01-15T04:30:44.161Z,5.53
2023-01-15T04:33:11.757Z,5.47
2023-01-15T04:35:39.275Z,11.23
2023-01-15T04:38:06.107Z,9.27
2023-01-15T04:40:51.427Z,8.30
2023-01-15T04:43:36.855Z,6.47
2023-01-15T04:46:03.753Z,2.17
2023-01-15T04:48:31.549Z,6.57
2023-01-15T04:51:03.728Z,8.47
2023-01-15T04:53:30.455Z,9.53
2023-01-15T04:56:05.075Z,10.47
2023-01-15T04:58:32.552Z,5.53
2023-01-15T05:01:03.221Z,4.03
2023-01-15T05:03:30.945Z,7.67
2023-01-15T05:06:04.617Z,4.37
2023-01-15T05:08:31.912Z,6.70
2023-01-15T05:11:06.630Z,13.57
2023-01-15T05:13:34.228Z,5.00
2023-01-15T05:16:29.811Z,5.80
2023-01-15T05:19:04.954Z,9.30
2023-01-15T05:21:34.455Z,8.93
2023-01-15T05:24:03.341Z,6.07
2023-01-15T05:26:34.666Z,4.80
2023-01-15T05:29:02.190Z,5.83
2023-01-15T05:31:29.619Z,4.20
2023-01-15T05:33:56.862Z,7.93
2023-01-15T05:36:26.605Z,6.93
2023-01-15T05:39:01.977Z,3.93
2023-01-15T05:41:49.027Z,8.47
2023-01-15T05:44:29.842Z,9.60
2023-01-15T05:46:58.892Z,10.40
2023-01-15T05:49:27.402Z,3.47
2023-01-15T05:51:55.056Z,6.57
2023-01-15T05:54:25.122Z,11.17
2023-01-15T05:56:52.207Z,12.73
2023-01-15T05:59:21.776Z,2.60
2023-01-15T06:01:48.799Z,7.43
2023-01-15T06:04:20.827Z,3.47
2023-01-15T06:06:49.946Z,5.67
2023-01-15T06:09:17.141Z,2.80
2023-01-15T06:11:44.105Z,3.77
2023-01-15T06:14:12.504Z,5.70
2023-01-15T06:16:41.288Z,9.10
2023-01-15T06:19:09.698Z,8.80
2023-01-15T06:21:36.593Z,10.43
2023-01-15T06:24:03.752Z,7.03
2023-01-15T06:26:30.845Z,5.03
2023-01-15T06:28:57.961Z,5.00
2023-01-15T06:31:26.867Z,6.73
2023-01-15T06:33:53.883Z,6.73
2023-01-15T06:36:23.149Z,6.63
2023-01-15T06:38:50.711Z,7.87
2023-01-15T06:41:38.660Z,7.90
2023-01-15T06:44:38.568Z,7.50
2023-01-15T06:47:20.675Z,4.63
2023-01-15T06:49:57.933Z,7.30
2023-01-15T06:52:27.053Z,4.20
2023-01-15T06:54:53.898Z,7.67
2023-01-15T06:57:20.993Z,6.97
2023-01-15T06:59:48.628Z,4.63
2023-01-15T07:02:15.485Z,6.93
2023-01-15T07:04:42.303Z,8.30
2023-01-15T07:07:09.147Z,7.87
2023-01-15T07:09:36.063Z,11.17
2023-01-15T07:12:02.865Z,7.13
2023-01-15T07:14:29.697Z,9.83
2023-01-15T07:16:56.647Z,4.00
2023-01-15T07:19:23.445Z,5.63
2023-01-15T07:21:50.312Z,7.93
2023-01-15T07:24:17.714Z,5.73
2023-01-15T07:26:45.654Z,9.93
2023-01-15T07:29:12.867Z,9.70
2023-01-15T07:31:40.903Z,7.47
2023-01-15T07:34:08.257Z,5.67
2023-01-15T07:36:35.200Z,6.73
2023-01-15T07:39:06.428Z,3.47
2023-01-15T07:41:51.681Z,8.97
2023-01-15T07:44:36.944Z,5.20
2023-01-15T07:47:27.841Z,2.93
2023-01-15T07:49:55.665Z,7.60
2023-01-15T07:52:22.839Z,5.10
2023-01-15T07:54:50.473Z,5.13
2023-01-15T07:57:20.407Z,9.00
2023-01-15T07:59:47.906Z,4.80
2023-01-15T08:02:14.693Z,7.47
2023-01-15T08:04:41.673Z,9.27
2023-01-15T08:07:09.176Z,7.53
2023-01-15T08:09:36.370Z,7.90
2023-01-15T08:12:22.683Z,6.47
2023-01-15T08:15:08.041Z,5.43
2023-01-15T08:17:36.143Z,3.80
2023-01-15T08:20:05.735Z,7.83
2023-01-15T08:22:32.917Z,6.73
2023-01-15T08:24:59.656Z,5.90
2023-01-15T08:27:26.996Z,2.50
2023-01-15T08:29:53.764Z,3.90
2023-01-15T08:32:20.504Z,7.17
2023-01-15T08:34:47.344Z,7.60
2023-01-15T08:37:14.076Z,3.67
2023-01-15T08:39:40.906Z,8.47
2023-01-15T08:42:08.332Z,9.17
2023-01-15T08:44:35.146Z,5.53
2023-01-15T08:47:01.933Z,7.20
2023-01-15T08:49:29.056Z,4.57
2023-01-15T08:51:55.797Z,7.90
2023-01-15T08:54:24.815Z,8.67
2023-01-15T08:56:51.993Z,7.90
2023-01-15T08:59:19.010Z,7.83
2023-01-15T09:01:45.992Z,5.67
2023-01-15T09:04:17.984Z,6.27
2023-01-15T09:06:45.417Z,10.77
2023-01-15T09:09:13.184Z,7.73
2023-01-15T09:11:42.055Z,4.87
2023-01-15T09:15:00.275Z,6.43
2023-01-15T09:16:57.921Z,5.43
2023-01-15T09:19:24.822Z,6.93
2023-01-15T09:21:51.570Z,4.33
2023-01-15T09:24:18.366Z,9.00
2023-01-15T09:26:45.229Z,5.57
2023-01-15T09:29:11.951Z,8.13
2023-01-15T09:31:38.837Z,9.73
2023-01-15T09:34:05.598Z,5.70
2023-01-15T09:36:35.114Z,3.60
2023-01-15T09:39:04.250Z,6.93
2023-01-15T09:42:15.920Z,3.07
2023-01-15T09:44:54.434Z,7.73
2023-01-15T09:47:30.194Z,6.50
2023-01-15T09:50:18.221Z,7.67
2023-01-15T09:53:01.212Z,5.53
2023-01-15T09:55:31.508Z,11.90
2023-01-15T09:58:01.154Z,5.70
2023-01-15T10:00:33.615Z,10.40
2023-01-15T10:03:28.989Z,7.63
2023-01-15T10:06:06.726Z,7.37
2023-01-15T10:08:42.515Z,11.30
2023-01-15T10:11:15.349Z,10.00
2023-01-15T10:13:48.803Z,14.07
2023-01-15T10:16:23.308Z,10.03
2023-01-15T10:18:50.391Z,6.10
2023-01-15T10:21:51.265Z,7.83
2023-01-15T10:24:40.251Z,13.07
2023-01-15T10:27:30.030Z,4.87
2023-01-15T10:30:15.747Z,4.40
2023-01-15T10:33:02.008Z,6.37
2023-01-15T10:35:41.373Z,7.20
2023-01-15T10:38:23.483Z,9.50
2023-01-15T10:40:56.064Z,13.43
2023-01-15T10:43:53.062Z,6.80
2023-01-15T10:46:25.500Z,5.47
2023-01-15T10:48:59.080Z,8.17
2023-01-15T10:51:46.134Z,5.03
2023-01-15T10:54:49.080Z,6.97
2023-01-15T10:57:24.473Z,7.27
2023-01-15T10:59:57.676Z,12.27
2023-01-15T11:02:42.442Z,4.97
2023-01-15T11:05:16.904Z,8.43
2023-01-15T11:08:10.486Z,6.93
2023-01-15T11:10:35.129Z,5.37
2023-01-15T11:13:41.882Z,4.37
2023-01-15T11:16:44.300Z,8.47
2023-01-15T11:19:37.316Z,10.17
2023-01-15T11:22:14.792Z,5.40
2023-01-15T11:25:01.283Z,6.53
2023-01-15T11:27:32.026Z,7.10
2023-01-15T11:30:05.075Z,3.43
2023-01-15T11:32:38.872Z,6.73
2023-01-15T11:35:08.998Z,11.70
2023-01-15T11:37:35.729Z,3.63
2023-01-15T11:40:07.466Z,8.90
2023-01-15T11:42:55.883Z,3.53
2023-01-15T11:45:42.845Z,5.63
2023-01-15T11:48:42.533Z,7.73
2023-01-15T11:51:12.363Z,5.93
2023-01-15T11:53:43.499Z,4.17
2023-01-15T11:56:15.206Z,10.40
2023-01-15T11:58:57.268Z,6.53
2023-01-15T12:01:28.569Z,5.43
2023-01-15T12:03:56.262Z,6.90
2023-01-15T12:06:23.995Z,4.50
2023-01-15T12:09:11.741Z,10.03
2023-01-15T12:11:53.513Z,5.77
2023-01-15T12:14:44.383Z,7.30
2023-01-15T12:17:26.229Z,2.73
2023-01-15T12:20:27.663Z,4.10
2023-01-15T12:23:25.384Z,6.27
2023-01-15T12:26:19.874Z,5.60
2023-01-15T12:28:58.654Z,7.87
2023-01-15T12:31:38.626Z,8.37
2023-01-15T12:34:47.178Z,5.87
2023-01-15T12:37:22.553Z,4.50
2023-01-15T12:40:00.665Z,4.20
2023-01-15T12:42:47.695Z,4.40
2023-01-15T12:45:25.227Z,10.53
2023-01-15T12:48:22.381Z,6.87
2023-01-15T12:50:51.690Z,3.00
2023-01-15T12:53:34.622Z,3.50
2023-01-15T12:56:13.275Z,3.40
2023-01-15T12:58:56.751Z,4.87
2023-01-15T13:02:11.013Z,7.30
2023-01-15T13:05:02.797Z,9.47
2023-01-15T13:07:38.617Z,8.53
2023-01-15T13:10:09.073Z,13.20
2023-01-15T13:12:35.996Z,2.93
2023-01-15T13:15:03.978Z,7.50
2023-01-15T13:17:51.832Z,9.87
2023-01-15T13:20:36.576Z,7.60
2023-01-15T13:23:08.272Z,6.70
2023-01-15T13:26:06.143Z,5.23
2023-01-15T13:28:52.764Z,9.50
2023-01-15T13:31:37.563Z,7.63
2023-01-15T13:34:19.331Z,6.90
2023-01-15T13:36:48.070Z,4.80
2023-01-15T13:39:20.500Z,6.33
2023-01-15T13:42:11.258Z,10.20
2023-01-15T13:44:45.693Z,5.23
2023-01-15T13:47:20.494Z,7.90
2023-01-15T13:49:55.264Z,11.90
2023-01-15T13:52:35.159Z,4.80
2023-01-15T13:55:15.376Z,8.53
2023-01-15T13:57:43.043Z,4.37
2023-01-15T14:00:34.408Z,2.23
2023-01-15T14:03:22.301Z,6.43
2023-01-15T14:06:09.858Z,4.73
2023-01-15T14:08:46.508Z,9.20
2023-01-15T14:11:53.602Z,5.77
2023-01-15T14:14:35.362Z,6.20
2023-01-15T14:17:10.995Z,4.30
2023-01-15T14:20:02.998Z,7.93
2023-01-15T14:23:05.848Z,10.73
2023-01-15T14:25:53.560Z,5.03
2023-01-15T14:28:43.751Z,8.33
2023-01-15T14:31:23.931Z,5.53
2023-01-15T14:34:12.972Z,8.83
2023-01-15T14:36:49.623Z,2.80
2023-01-15T14:39:48.843Z,5.80
2023-01-15T14:42:40.102Z,10.43
2023-01-15T14:45:34.096Z,3.90
2023-01-15T14:48:03.723Z,5.73
2023-01-15T14:50:33.279Z,7.57
2023-01-15T14:53:26.903Z,6.53
2023-01-15T14:56:19.696Z,10.57
2023-01-15T14:59:10.124Z,9.10
2023-01-15T15:01:44.235Z,8.60
2023-01-15T15:04:44.570Z,9.10
2023-01-15T15:07:18.549Z,7.37
2023-01-15T15:10:08.554Z,3.60
2023-01-15T15:12:45.649Z,11.80
2023-01-15T15:15:15.296Z,12.67
2023-01-15T15:18:00.553Z,12.27
2023-01-15T15:21:09.700Z,9.07
2023-01-15T15:24:13.469Z,12.43
2023-01-15T15:26:40.302Z,10.20
2023-01-15T15:29:09.813Z,7.33
2023-01-15T15:31:49.497Z,11.27
2023-01-15T15:34:24.173Z,6.80
2023-01-15T15:36:51.038Z,9.73
2023-01-15T15:39:23.943Z,4.60
2023-01-15T15:42:13.171Z,7.80
2023-01-15T15:45:13.833Z,3.43
2023-01-15T15:48:01.486Z,11.07
2023-01-15T15:50:31.868Z,6.73
2023-01-15T15:53:00.068Z,6.67
2023-01-15T15:55:43.438Z,8.17
2023-01-15T15:58:31.254Z,7.07
2023-01-15T16:00:58.234Z,12.50
2023-01-15T16:03:27.845Z,9.40
2023-01-15T16:06:07.738Z,4.43
2023-01-15T16:08:36.090Z,4.40
2023-01-15T16:11:07.080Z,3.80
2023-01-15T16:13:43.639Z,3.47
2023-01-15T16:16:12.911Z,5.47
2023-01-15T16:18:49.820Z,4.63
2023-01-15T16:21:29.164Z,7.17
2023-01-15T16:24:04.915Z,3.80
2023-01-15T16:26:36.915Z,2.57
2023-01-15T16:29:18.002Z,5.40
2023-01-15T16:31:44.948Z,4.83
2023-01-15T16:34:18.963Z,2.80
2023-01-15T16:36:45.786Z,3.47
2023-01-15T16:39:40.862Z,8.57
2023-01-15T16:42:28.540Z,3.83
2023-01-15T16:44:58.929Z,11.43
2023-01-15T16:47:29.109Z,7.20
2023-01-15T16:50:35.413Z,9.70
2023-01-15T16:53:04.743Z,11.73
2023-01-15T16:55:34.537Z,8.93
2023-01-15T16:58:17.544Z,5.27
2023-01-15T17:00:47.887Z,6.47
2023-01-15T17:03:23.393Z,10.87
2023-01-15T17:05:53.675Z,7.17
2023-01-15T17:08:37.706Z,6.73
2023-01-15T17:11:06.037Z,8.10
2023-01-15T17:13:38.573Z,5.23
2023-01-15T17:16:07.228Z,6.97
2023-01-15T17:18:34.340Z,5.97
2023-01-15T17:21:01.912Z,13.07
2023-01-15T17:23:31.461Z,5.70
2023-01-15T17:25:58.910Z,8.50
2023-01-15T17:28:25.888Z,9.80
2023-01-15T17:30:59.194Z,4.00
2023-01-15T17:33:26.000Z,4.93
2023-01-15T17:35:53.892Z,5.93
2023-01-15T17:38:20.938Z,5.90
2023-01-15T17:40:48.700Z,3.63
2023-01-15T17:43:16.136Z,7.07
2023-01-15T17:45:43.323Z,7.70
2023-01-15T17:48:10.200Z,8.27
2023-01-15T17:50:37.817Z,4.97
2023-01-15T17:53:05.490Z,7.33
2023-01-15T17:55:51.350Z,6.43
2023-01-15T17:58:36.544Z,14.00
2023-01-15T18:01:35.217Z,7.53
2023-01-15T18:04:21.313Z,8.17
2023-01-15T18:06:52.837Z,10.07
2023-01-15T18:09:22.774Z,7.90
2023-01-15T18:11:49.664Z,5.27
2023-01-15T18:14:16.485Z,4.23
2023-01-15T18:16:43.301Z,5.67
2023-01-15T18:19:10.303Z,7.57
2023-01-15T18:21:40.820Z,7.37
2023-01-15T18:24:12.459Z,6.17
2023-01-15T18:26:41.240Z,5.53
2023-01-15T18:29:10.336Z,2.43
2023-01-15T18:31:38.248Z,2.70
2023-01-15T18:34:05.491Z,5.07
2023-01-15T18:36:32.451Z,5.83
2023-01-15T18:39:06.154Z,5.97
2023-01-15T18:41:35.054Z,5.57
2023-01-15T18:44:49.235Z,4.03
2023-01-15T18:47:17.631Z,3.80
2023-01-15T18:49:45.801Z,5.80
2023-01-15T18:52:34.378Z,4.73
2023-01-15T18:55:01.189Z,4.30
2023-01-15T18:57:28.232Z,4.13
2023-01-15T18:59:55.037Z,2.87
2023-01-15T19:02:22.309Z,3.83
2023-01-15T19:04:49.421Z,4.67
2023-01-15T19:07:16.724Z,3.33
2023-01-15T19:09:43.501Z,2.53
2023-01-15T19:12:10.367Z,3.87
2023-01-15T19:14:55.634Z,5.40
2023-01-15T19:17:43.400Z,2.93
2023-01-15T19:20:12.866Z,3.93
2023-01-15T19:22:58.376Z,9.47
2023-01-15T19:25:29.761Z,3.00
2023-01-15T19:27:58.060Z,3.97
2023-01-15T19:30:26.994Z,5.43
2023-01-15T19:32:53.938Z,2.93
2023-01-15T19:35:20.859Z,6.53
2023-01-15T19:37:47.771Z,4.80
2023-01-15T19:40:29.084Z,3.70
2023-01-15T19:43:14.696Z,3.37
2023-01-15T19:46:03.569Z,6.03
2023-01-15T19:48:49.241Z,4.07
2023-01-15T19:51:16.002Z,5.57
2023-01-15T19:53:42.858Z,4.53
2023-01-15T19:56:09.764Z,8.37
2023-01-15T19:58:37.220Z,8.90
2023-01-15T20:01:04.974Z,7.60
2023-01-15T20:03:31.853Z,7.47
2023-01-15T20:05:58.676Z,8.30
2023-01-15T20:08:25.989Z,12.30
2023-01-15T20:10:52.959Z,21.53
2023-01-15T20:13:40.788Z,16.63
2023-01-15T20:16:19.615Z,16.30
2023-01-15T20:18:49.215Z,44.47
2023-01-15T20:21:16.268Z,53.00
2023-01-15T20:23:43.717Z,68.27
2023-01-15T20:26:12.824Z,34.63
2023-01-15T20:28:42.283Z,39.33
2023-01-15T20:31:19.838Z,14.27
2023-01-15T20:33:47.514Z,11.53
2023-01-15T20:36:14.926Z,8.97
2023-01-15T20:38:41.670Z,7.73
2023-01-15T20:41:28.851Z,12.50
2023-01-15T20:44:14.362Z,8.17
2023-01-15T20:46:41.209Z,9.30
2023-01-15T20:49:27.037Z,7.97
2023-01-15T20:51:54.997Z,9.80
2023-01-15T20:54:23.302Z,7.77
2023-01-15T20:56:50.508Z,7.00
2023-01-15T20:59:17.304Z,8.73
2023-01-15T21:01:44.170Z,7.23
2023-01-15T21:04:13.456Z,6.07
2023-01-15T21:06:40.375Z,9.03
2023-01-15T21:09:07.139Z,5.00
2023-01-15T21:11:33.966Z,8.20
2023-01-15T21:14:01.020Z,6.40
2023-01-15T21:16:27.833Z,11.47
2023-01-15T21:18:54.638Z,6.67
2023-01-15T21:21:22.165Z,6.13
2023-01-15T21:23:49.040Z,8.10
2023-01-15T21:26:16.497Z,6.77
2023-01-15T21:28:44.717Z,12.07
2023-01-15T21:31:13.074Z,6.20
2023-01-15T21:33:40.263Z,9.40
2023-01-15T21:36:09.164Z,5.93
2023-01-15T21:38:36.269Z,9.77
2023-01-15T21:41:13.668Z,5.63
2023-01-15T21:43:59.592Z,4.87
2023-01-15T21:46:27.976Z,4.67
2023-01-15T21:48:59.177Z,7.50
2023-01-15T21:51:26.772Z,6.10
2023-01-15T21:53:54.104Z,5.13
2023-01-15T21:56:21.227Z,8.10
2023-01-15T21:58:47.945Z,6.03
2023-01-15T22:01:18.085Z,6.63
2023-01-15T22:03:45.836Z,4.67
2023-01-15T22:06:12.786Z,5.67
2023-01-15T22:08:39.730Z,3.47
2023-01-15T22:11:08.909Z,5.23
2023-01-15T22:13:36.572Z,7.03
2023-01-15T22:16:04.471Z,6.87
2023-01-15T22:18:32.641Z,5.17
2023-01-15T22:21:05.194Z,6.87
2023-01-15T22:23:32.727Z,4.97
2023-01-15T22:25:59.625Z,3.07
2023-01-15T22:28:26.345Z,5.87
2023-01-15T22:30:53.089Z,7.03
2023-01-15T22:33:19.912Z,4.73
2023-01-15T22:35:59.303Z,2.43
2023-01-15T22:38:26.371Z,6.40
2023-01-15T22:40:53.268Z,3.70
2023-01-15T22:43:20.017Z,4.80
2023-01-15T22:45:46.852Z,6.13
2023-01-15T22:48:13.631Z,6.03
2023-01-15T22:50:40.439Z,5.07
2023-01-15T22:53:07.695Z,7.90
2023-01-15T22:55:34.558Z,5.83
2023-01-15T22:58:01.311Z,3.70
2023-01-15T23:00:28.052Z,4.23
2023-01-15T23:02:54.854Z,6.10
2023-01-15T23:05:23.104Z,7.23
2023-01-15T23:07:50.967Z,3.97
2023-01-15T23:10:17.934Z,3.70
2023-01-15T23:12:44.799Z,5.47
2023-01-15T23:15:13.337Z,7.63
2023-01-15T23:17:40.429Z,4.97
2023-01-15T23:20:09.044Z,4.20
2023-01-15T23:22:35.905Z,5.50
2023-01-15T23:25:03.563Z,9.97
2023-01-15T23:27:30.314Z,3.70
2023-01-15T23:29:57.075Z,6.23
2023-01-15T23:32:23.809Z,4.53
2023-01-15T23:34:50.725Z,5.83
2023-01-15T23:37:17.647Z,3.93
2023-01-15T23:39:44.454Z,5.13
2023-01-15T23:42:30.179Z,2.80
2023-01-15T23:45:15.510Z,7.03
2023-01-15T23:47:42.258Z,9.97
2023-01-15T23:50:09.568Z,6.47
2023-01-15T23:52:36.429Z,7.30
2023-01-15T23:55:03.231Z,4.03
2023-01-15T23:57:29.979Z,5.77
2023-01-15T23:59:56.745Z,6.10
